• Join FlightAware (Why Join?)
  • Login
  • US Flag 
06:31AM EDT


 

Airport Tracker/Info


-or-


 

Live Flight TrackerFlight Track Log ✈ DLH917 ✈ 17-Apr-2013 ✈ EGLL / LHR - EDDF / FRA

Flight Track Log - Related Links

Times and Time Zones

All times are in EDT time to prevent confusion due to time zone crossing. See the DLH917 flight status page for this flight to view local times or setup timezone preferences in your user account.

Time Position Orientation Groundspeed Altitude Reporting Facility
EDT Latitude Longitude Course Direction KTS MPH feet Rate Location/Type
02:30PM 51.4166 0.0430 101° East  Level Estimated
02:31PM 51.3958 0.2108 101° East  Level Estimated
02:32PM 51.3748 0.3784 101° East  Level Estimated
02:33PM 51.3535 0.5459 101° East  Level Estimated
02:34PM 51.3320 0.7133 102° East  Level Estimated
02:35PM 51.3102 0.8805 102° East  Level Estimated
02:36PM 51.2883 1.0475 102° East  Level Estimated
02:37PM 51.2660 1.2144 102° East  Level Estimated
02:38PM 51.2436 1.3811 102° East  Level Estimated
02:39PM 51.2209 1.5476 102° East  Level Estimated
02:40PM 51.1980 1.7140 102° East  Level Estimated
02:41PM 51.1748 1.8802 102° East  Level Estimated
02:42PM 51.1514 2.0462 103° East  Level Estimated
02:43PM 51.1278 2.2121 103° East  Level Estimated
02:44PM 51.1039 2.3778 103° East  Level Estimated
02:45PM 51.0798 2.5433 103° East  Level Estimated
02:46PM 51.0555 2.7087 103° East  Level Estimated
02:47PM 51.0309 2.8739 103° East  Level Estimated
02:48PM 51.0061 3.0389 103° East  Level Estimated
02:49PM 50.9811 3.2037 104° East  Level Estimated
02:50PM 50.9558 3.3684 104° East  Level Estimated
02:51PM 50.9303 3.5329 104° East  Level Estimated
02:52PM 50.9046 3.6971 104° East  Level Estimated
02:53PM 50.8786 3.8613 104° East  Level Estimated
02:54PM 50.8524 4.0252 104° East  Level Estimated
02:55PM 50.8260 4.1889 104° East  Level Estimated
02:56PM 50.7994 4.3525 104° East  Level Estimated
02:57PM 50.7725 4.5159 105° East  Level Estimated
02:58PM 50.7454 4.6790 105° East  Level Estimated
02:59PM 50.7181 4.8420 105° East  Level Estimated
03:00PM 50.6905 5.0048 105° East  Level Estimated
03:01PM 50.6627 5.1674 105° East  Level Estimated
03:02PM 50.6347 5.3299 105° East  Level Estimated
03:03PM 50.6065 5.4921 105° East  Level Estimated
03:04PM 50.5780 5.6541 105° East  Level Estimated
03:05PM 50.5494 5.8159 106° East  Level Estimated
03:06PM 50.5205 5.9776 106° East  Level Estimated
03:07PM 50.4877 6.1588 106° East  Level Estimated
03:08PM 50.4548 6.3397 106° East  Level Estimated
03:09PM 50.4215 6.5204 106° East  Level Estimated
03:10PM 50.3879 6.7008 106° East  Level Estimated
03:11PM 50.3541 6.8810 106° East  Level Estimated
03:12PM 50.3200 7.0609 106° East  Level Estimated
03:13PM 50.2856 7.2405 107° East  Level Estimated
03:14PM 50.2509 7.4199 107° East  Level Estimated
03:15PM 50.2160 7.5991 107° East  Level Estimated
03:16PM 50.1808 7.7779 107° East  Level Estimated
03:17PM 50.1453 7.9565 107° East  Level Estimated
03:18PM 50.1095 8.1349 107° East  Level Estimated
03:19PM 50.0735 8.3129 107° East  Level Estimated
03:20PM 50.0372 8.4907 108° East  Level Estimated
03:21PM 50.0264 8.5431 108° East  Level Estimated
03:22PM 50.0264 8.5431 73° East  Level Estimated
03:23PM 50.0264 8.5431 73° East  Level Estimated
03:24PM 50.0264 8.5431 73° East  Level Estimated
03:25PM 50.0264 8.5431 73° East  Level Estimated
03:26PM 50.0264 8.5431 73° East  Level Estimated
03:27PM 50.0264 8.5431 73° East  Level Estimated
03:28PM 50.0264 8.5431 73° East  Level Estimated
03:29PM 50.0264 8.5431 73° East  Level Estimated
03:30PM 50.0264 8.5431 73° East  Level Estimated
03:31PM 50.0264 8.5431 73° East  Level Estimated
03:32PM 50.0264 8.5431 73° East  Level Estimated